sensor_id;sensor_type;location;lat;lon;timestamp;temperature;humidity
22035;DHT22;11181;51.002;4.356;2023-07-29T00:01:33;22.30;99.90
22035;DHT22;11181;51.002;4.356;2023-07-29T00:04:00;22.30;99.90
22035;DHT22;11181;51.002;4.356;2023-07-29T00:06:27;22.30;99.90
22035;DHT22;11181;51.002;4.356;2023-07-29T00:08:54;22.20;99.90
22035;DHT22;11181;51.002;4.356;2023-07-29T00:11:21;22.10;99.90
22035;DHT22;11181;51.002;4.356;2023-07-29T00:13:49;22.00;99.90
22035;DHT22;11181;51.002;4.356;2023-07-29T00:16:16;21.80;99.90
22035;DHT22;11181;51.002;4.356;2023-07-29T00:18:43;21.70;99.90
22035;DHT22;11181;51.002;4.356;2023-07-29T00:21:10;21.60;99.90
22035;DHT22;11181;51.002;4.356;2023-07-29T00:23:37;21.40;99.90
22035;DHT22;11181;51.002;4.356;2023-07-29T00:26:04;21.40;99.90
22035;DHT22;11181;51.002;4.356;2023-07-29T00:28:31;21.30;99.90
22035;DHT22;11181;51.002;4.356;2023-07-29T00:30:59;21.30;99.90
22035;DHT22;11181;51.002;4.356;2023-07-29T00:33:26;21.20;99.90
22035;DHT22;11181;51.002;4.356;2023-07-29T00:35:53;21.20;99.90
22035;DHT22;11181;51.002;4.356;2023-07-29T00:38:20;21.10;99.90
22035;DHT22;11181;51.002;4.356;2023-07-29T00:40:47;21.10;99.90
22035;DHT22;11181;51.002;4.356;2023-07-29T00:43:14;21.10;99.90
22035;DHT22;11181;51.002;4.356;2023-07-29T00:45:41;21.00;99.90
22035;DHT22;11181;51.002;4.356;2023-07-29T00:48:11;21.00;99.90
22035;DHT22;11181;51.002;4.356;2023-07-29T00:50:37;21.00;99.90
22035;DHT22;11181;51.002;4.356;2023-07-29T00:53:05;21.00;99.90
22035;DHT22;11181;51.002;4.356;2023-07-29T00:55:32;20.90;99.90
22035;DHT22;11181;51.002;4.356;2023-07-29T00:58:00;20.80;99.90
22035;DHT22;11181;51.002;4.356;2023-07-29T01:00:27;20.80;99.90
22035;DHT22;11181;51.002;4.356;2023-07-29T01:02:53;20.80;99.90
22035;DHT22;11181;51.002;4.356;2023-07-29T01:05:22;20.80;99.90
22035;DHT22;11181;51.002;4.356;2023-07-29T01:07:55;20.80;99.90
22035;DHT22;11181;51.002;4.356;2023-07-29T01:10:32;20.80;99.90
22035;DHT22;11181;51.002;4.356;2023-07-29T01:13:08;20.90;99.90
22035;DHT22;11181;51.002;4.356;2023-07-29T01:15:43;20.90;99.90
22035;DHT22;11181;51.002;4.356;2023-07-29T01:18:18;21.00;99.90
22035;DHT22;11181;51.002;4.356;2023-07-29T01:20:48;21.00;99.90
22035;DHT22;11181;51.002;4.356;2023-07-29T01:23:23;21.00;99.90
22035;DHT22;11181;51.002;4.356;2023-07-29T01:25:50;21.10;99.90
22035;DHT22;11181;51.002;4.356;2023-07-29T01:28:17;21.10;99.90
22035;DHT22;11181;51.002;4.356;2023-07-29T01:30:44;21.10;99.90
22035;DHT22;11181;51.002;4.356;2023-07-29T01:33:16;21.10;99.90
22035;DHT22;11181;51.002;4.356;2023-07-29T01:35:48;21.20;99.90
22035;DHT22;11181;51.002;4.356;2023-07-29T01:38:18;21.20;99.90
22035;DHT22;11181;51.002;4.356;2023-07-29T01:40:48;21.20;99.90
22035;DHT22;11181;51.002;4.356;2023-07-29T01:43:17;21.20;99.90
22035;DHT22;11181;51.002;4.356;2023-07-29T01:45:44;21.20;99.90
22035;DHT22;11181;51.002;4.356;2023-07-29T01:48:12;21.30;99.90
22035;DHT22;11181;51.002;4.356;2023-07-29T01:50:38;21.30;99.90
22035;DHT22;11181;51.002;4.356;2023-07-29T01:53:05;21.30;99.90
22035;DHT22;11181;51.002;4.356;2023-07-29T01:55:32;21.10;99.90
22035;DHT22;11181;51.002;4.356;2023-07-29T01:58:00;21.00;99.90
22035;DHT22;11181;51.002;4.356;2023-07-29T02:00:27;20.90;99.90
22035;DHT22;11181;51.002;4.356;2023-07-29T02:02:54;20.90;99.90
22035;DHT22;11181;51.002;4.356;2023-07-29T02:05:21;20.80;99.90
22035;DHT22;11181;51.002;4.356;2023-07-29T02:07:48;20.80;99.90
22035;DHT22;11181;51.002;4.356;2023-07-29T02:10:15;20.80;99.90
22035;DHT22;11181;51.002;4.356;2023-07-29T02:12:42;20.90;99.90
22035;DHT22;11181;51.002;4.356;2023-07-29T02:15:10;20.90;99.90
22035;DHT22;11181;51.002;4.356;2023-07-29T02:17:37;20.90;99.90
22035;DHT22;11181;51.002;4.356;2023-07-29T02:20:05;20.90;99.90
22035;DHT22;11181;51.002;4.356;2023-07-29T02:22:33;20.90;99.90
22035;DHT22;11181;51.002;4.356;2023-07-29T02:24:59;20.80;99.90
22035;DHT22;11181;51.002;4.356;2023-07-29T02:27:26;20.60;99.90
22035;DHT22;11181;51.002;4.356;2023-07-29T02:29:53;20.60;99.90
22035;DHT22;11181;51.002;4.356;2023-07-29T02:32:22;20.70;99.90
22035;DHT22;11181;51.002;4.356;2023-07-29T02:34:49;20.70;99.90
22035;DHT22;11181;51.002;4.356;2023-07-29T02:37:16;20.70;99.90
22035;DHT22;11181;51.002;4.356;2023-07-29T02:39:43;20.70;99.90
22035;DHT22;11181;51.002;4.356;2023-07-29T02:42:10;20.70;99.90
22035;DHT22;11181;51.002;4.356;2023-07-29T02:44:37;20.70;99.90
22035;DHT22;11181;51.002;4.356;2023-07-29T02:47:03;20.70;99.90
22035;DHT22;11181;51.002;4.356;2023-07-29T02:49:32;20.70;99.90
22035;DHT22;11181;51.002;4.356;2023-07-29T02:51:58;20.70;99.90
22035;DHT22;11181;51.002;4.356;2023-07-29T02:54:25;20.70;99.90
22035;DHT22;11181;51.002;4.356;2023-07-29T02:56:53;20.80;99.90
22035;DHT22;11181;51.002;4.356;2023-07-29T02:59:20;20.80;99.90
22035;DHT22;11181;51.002;4.356;2023-07-29T03:01:46;20.80;99.90
22035;DHT22;11181;51.002;4.356;2023-07-29T03:04:13;20.80;99.90
22035;DHT22;11181;51.002;4.356;2023-07-29T03:06:41;20.70;99.90
22035;DHT22;11181;51.002;4.356;2023-07-29T03:09:08;20.70;99.90
22035;DHT22;11181;51.002;4.356;2023-07-29T03:11:35;20.70;99.90
22035;DHT22;11181;51.002;4.356;2023-07-29T03:14:02;20.60;99.90
22035;DHT22;11181;51.002;4.356;2023-07-29T03:16:29;20.60;99.90
22035;DHT22;11181;51.002;4.356;2023-07-29T03:18:56;20.60;99.90
22035;DHT22;11181;51.002;4.356;2023-07-29T03:21:23;20.50;99.90
22035;DHT22;11181;51.002;4.356;2023-07-29T03:23:51;20.50;99.90
22035;DHT22;11181;51.002;4.356;2023-07-29T03:26:18;20.50;99.90
22035;DHT22;11181;51.002;4.356;2023-07-29T03:28:45;20.60;99.90
22035;DHT22;11181;51.002;4.356;2023-07-29T03:31:12;20.60;99.90
22035;DHT22;11181;51.002;4.356;2023-07-29T03:33:39;20.60;99.90
22035;DHT22;11181;51.002;4.356;2023-07-29T03:36:05;20.70;99.90
22035;DHT22;11181;51.002;4.356;2023-07-29T03:38:32;20.60;99.90
22035;DHT22;11181;51.002;4.356;2023-07-29T03:41:02;20.60;99.90
22035;DHT22;11181;51.002;4.356;2023-07-29T03:43:29;20.60;99.90
22035;DHT22;11181;51.002;4.356;2023-07-29T03:45:55;20.50;99.90
22035;DHT22;11181;51.002;4.356;2023-07-29T03:48:22;20.40;99.90
22035;DHT22;11181;51.002;4.356;2023-07-29T03:50:49;20.40;99.90
22035;DHT22;11181;51.002;4.356;2023-07-29T03:53:16;20.40;99.90
22035;DHT22;11181;51.002;4.356;2023-07-29T03:55:43;20.50;99.90
22035;DHT22;11181;51.002;4.356;2023-07-29T03:58:12;20.50;99.90
22035;DHT22;11181;51.002;4.356;2023-07-29T04:00:38;20.50;99.90
22035;DHT22;11181;51.002;4.356;2023-07-29T04:03:05;20.40;99.90
22035;DHT22;11181;51.002;4.356;2023-07-29T04:05:32;20.30;99.90
22035;DHT22;11181;51.002;4.356;2023-07-29T04:07:59;20.20;99.90
22035;DHT22;11181;51.002;4.356;2023-07-29T04:10:26;20.20;99.90
22035;DHT22;11181;51.002;4.356;2023-07-29T04:12:53;20.10;99.90
22035;DHT22;11181;51.002;4.356;2023-07-29T04:15:21;20.10;99.90
22035;DHT22;11181;51.002;4.356;2023-07-29T04:17:48;20.10;99.90
22035;DHT22;11181;51.002;4.356;2023-07-29T04:20:15;20.10;99.90
22035;DHT22;11181;51.002;4.356;2023-07-29T04:22:42;20.10;99.90
22035;DHT22;11181;51.002;4.356;2023-07-29T04:25:09;20.10;99.90
22035;DHT22;11181;51.002;4.356;2023-07-29T04:27:36;20.10;99.90
22035;DHT22;11181;51.002;4.356;2023-07-29T04:30:03;20.00;99.90
22035;DHT22;11181;51.002;4.356;2023-07-29T04:32:31;20.00;99.90
22035;DHT22;11181;51.002;4.356;2023-07-29T04:34:58;20.00;99.90
22035;DHT22;11181;51.002;4.356;2023-07-29T04:37:25;20.00;99.90
22035;DHT22;11181;51.002;4.356;2023-07-29T04:39:52;20.00;99.90
22035;DHT22;11181;51.002;4.356;2023-07-29T04:42:19;19.90;99.90
22035;DHT22;11181;51.002;4.356;2023-07-29T04:44:45;19.90;99.90
22035;DHT22;11181;51.002;4.356;2023-07-29T04:47:12;20.00;99.90
22035;DHT22;11181;51.002;4.356;2023-07-29T04:49:41;20.00;99.90
22035;DHT22;11181;51.002;4.356;2023-07-29T04:52:08;20.00;99.90
22035;DHT22;11181;51.002;4.356;2023-07-29T04:54:35;20.10;99.90
22035;DHT22;11181;51.002;4.356;2023-07-29T04:57:02;20.00;99.90
22035;DHT22;11181;51.002;4.356;2023-07-29T04:59:29;20.00;99.90
22035;DHT22;11181;51.002;4.356;2023-07-29T05:01:56;19.90;99.90
22035;DHT22;11181;51.002;4.356;2023-07-29T05:04:23;19.70;99.90
22035;DHT22;11181;51.002;4.356;2023-07-29T05:06:51;19.70;99.90
22035;DHT22;11181;51.002;4.356;2023-07-29T05:09:19;19.70;99.90
22035;DHT22;11181;51.002;4.356;2023-07-29T05:11:46;19.70;99.90
22035;DHT22;11181;51.002;4.356;2023-07-29T05:14:15;19.70;99.90
22035;DHT22;11181;51.002;4.356;2023-07-29T05:16:42;19.70;99.90
22035;DHT22;11181;51.002;4.356;2023-07-29T05:19:09;19.60;99.90
22035;DHT22;11181;51.002;4.356;2023-07-29T05:21:37;19.70;99.90
22035;DHT22;11181;51.002;4.356;2023-07-29T05:24:05;19.80;99.90
22035;DHT22;11181;51.002;4.356;2023-07-29T05:26:32;19.80;99.90
22035;DHT22;11181;51.002;4.356;2023-07-29T05:28:59;19.90;99.90
22035;DHT22;11181;51.002;4.356;2023-07-29T05:31:26;20.00;99.90
22035;DHT22;11181;51.002;4.356;2023-07-29T05:33:53;20.00;99.90
22035;DHT22;11181;51.002;4.356;2023-07-29T05:36:20;19.90;99.90
22035;DHT22;11181;51.002;4.356;2023-07-29T05:38:47;19.90;99.90
22035;DHT22;11181;51.002;4.356;2023-07-29T05:41:15;19.90;99.90
22035;DHT22;11181;51.002;4.356;2023-07-29T05:43:42;19.90;99.90
22035;DHT22;11181;51.002;4.356;2023-07-29T05:46:09;20.00;99.90
22035;DHT22;11181;51.002;4.356;2023-07-29T05:48:36;20.00;99.90
22035;DHT22;11181;51.002;4.356;2023-07-29T05:51:03;20.00;99.90
22035;DHT22;11181;51.002;4.356;2023-07-29T05:53:30;19.90;99.90
22035;DHT22;11181;51.002;4.356;2023-07-29T05:55:57;19.90;99.90
22035;DHT22;11181;51.002;4.356;2023-07-29T05:58:26;19.90;99.90
22035;DHT22;11181;51.002;4.356;2023-07-29T06:00:52;19.90;99.90
22035;DHT22;11181;51.002;4.356;2023-07-29T06:03:19;19.90;99.90
22035;DHT22;11181;51.002;4.356;2023-07-29T06:05:46;20.00;99.90
22035;DHT22;11181;51.002;4.356;2023-07-29T06:08:13;19.90;99.90
22035;DHT22;11181;51.002;4.356;2023-07-29T06:10:40;20.00;99.90
22035;DHT22;11181;51.002;4.356;2023-07-29T06:13:07;20.20;99.90
22035;DHT22;11181;51.002;4.356;2023-07-29T06:15:35;20.30;99.90
22035;DHT22;11181;51.002;4.356;2023-07-29T06:18:02;20.10;99.90
22035;DHT22;11181;51.002;4.356;2023-07-29T06:20:29;20.10;99.90
22035;DHT22;11181;51.002;4.356;2023-07-29T06:22:56;20.30;99.90
22035;DHT22;11181;51.002;4.356;2023-07-29T06:25:23;20.40;99.90
22035;DHT22;11181;51.002;4.356;2023-07-29T06:27:49;20.40;99.90
22035;DHT22;11181;51.002;4.356;2023-07-29T06:30:16;20.60;99.90
22035;DHT22;11181;51.002;4.356;2023-07-29T06:32:45;20.80;99.90
22035;DHT22;11181;51.002;4.356;2023-07-29T06:35:12;21.00;99.90
22035;DHT22;11181;51.002;4.356;2023-07-29T06:37:38;21.00;99.90
22035;DHT22;11181;51.002;4.356;2023-07-29T06:40:06;21.20;99.90
22035;DHT22;11181;51.002;4.356;2023-07-29T06:42:33;21.30;99.90
22035;DHT22;11181;51.002;4.356;2023-07-29T06:45:00;21.40;99.90
22035;DHT22;11181;51.002;4.356;2023-07-29T06:47:27;21.40;99.90
22035;DHT22;11181;51.002;4.356;2023-07-29T06:49:55;21.20;99.90
22035;DHT22;11181;51.002;4.356;2023-07-29T06:52:22;21.20;99.90
22035;DHT22;11181;51.002;4.356;2023-07-29T06:54:49;21.30;99.90
22035;DHT22;11181;51.002;4.356;2023-07-29T06:57:16;21.40;99.90
22035;DHT22;11181;51.002;4.356;2023-07-29T06:59:43;21.30;99.90
22035;DHT22;11181;51.002;4.356;2023-07-29T07:02:09;21.50;99.90
22035;DHT22;11181;51.002;4.356;2023-07-29T07:04:36;21.60;99.90
22035;DHT22;11181;51.002;4.356;2023-07-29T07:07:05;21.80;99.90
22035;DHT22;11181;51.002;4.356;2023-07-29T07:09:32;21.90;99.90
22035;DHT22;11181;51.002;4.356;2023-07-29T07:11:59;21.90;99.90
22035;DHT22;11181;51.002;4.356;2023-07-29T07:14:26;22.00;99.90
22035;DHT22;11181;51.002;4.356;2023-07-29T07:16:52;22.00;99.90
22035;DHT22;11181;51.002;4.356;2023-07-29T07:19:19;22.00;99.90
22035;DHT22;11181;51.002;4.356;2023-07-29T07:21:46;22.00;99.90
22035;DHT22;11181;51.002;4.356;2023-07-29T07:24:14;21.80;99.90
22035;DHT22;11181;51.002;4.356;2023-07-29T07:26:41;21.80;99.90
22035;DHT22;11181;51.002;4.356;2023-07-29T07:29:08;21.70;99.90
22035;DHT22;11181;51.002;4.356;2023-07-29T07:31:35;21.70;99.90
22035;DHT22;11181;51.002;4.356;2023-07-29T07:34:02;21.50;99.90
22035;DHT22;11181;51.002;4.356;2023-07-29T07:36:29;21.50;99.90
22035;DHT22;11181;51.002;4.356;2023-07-29T07:38:56;21.60;99.90
22035;DHT22;11181;51.002;4.356;2023-07-29T07:41:25;21.50;99.90
22035;DHT22;11181;51.002;4.356;2023-07-29T07:43:52;21.50;99.90
22035;DHT22;11181;51.002;4.356;2023-07-29T07:46:19;21.50;99.90
22035;DHT22;11181;51.002;4.356;2023-07-29T07:48:46;21.60;99.90
22035;DHT22;11181;51.002;4.356;2023-07-29T07:51:13;21.80;99.90
22035;DHT22;11181;51.002;4.356;2023-07-29T07:53:40;21.80;99.90
22035;DHT22;11181;51.002;4.356;2023-07-29T07:56:07;21.90;99.90
22035;DHT22;11181;51.002;4.356;2023-07-29T07:58:36;21.90;99.90
22035;DHT22;11181;51.002;4.356;2023-07-29T08:01:03;22.00;99.90
22035;DHT22;11181;51.002;4.356;2023-07-29T08:03:30;22.20;99.90
22035;DHT22;11181;51.002;4.356;2023-07-29T08:05:57;22.30;99.90
22035;DHT22;11181;51.002;4.356;2023-07-29T08:08:24;22.20;99.90
22035;DHT22;11181;51.002;4.356;2023-07-29T08:10:52;22.20;99.90
22035;DHT22;11181;51.002;4.356;2023-07-29T08:13:19;22.50;99.90
22035;DHT22;11181;51.002;4.356;2023-07-29T08:15:48;22.70;99.90
22035;DHT22;11181;51.002;4.356;2023-07-29T08:18:16;23.00;99.90
22035;DHT22;11181;51.002;4.356;2023-07-29T08:20:51;23.10;99.90
22035;DHT22;11181;51.002;4.356;2023-07-29T08:23:19;23.20;99.90
22035;DHT22;11181;51.002;4.356;2023-07-29T08:25:51;23.30;99.90
22035;DHT22;11181;51.002;4.356;2023-07-29T08:28:18;23.50;99.90
22035;DHT22;11181;51.002;4.356;2023-07-29T08:30:45;23.80;99.90
22035;DHT22;11181;51.002;4.356;2023-07-29T08:33:14;23.90;99.90
22035;DHT22;11181;51.002;4.356;2023-07-29T08:35:41;23.90;99.90
22035;DHT22;11181;51.002;4.356;2023-07-29T08:38:08;24.10;99.90
22035;DHT22;11181;51.002;4.356;2023-07-29T08:40:35;24.40;99.90
22035;DHT22;11181;51.002;4.356;2023-07-29T08:43:05;24.60;99.90
22035;DHT22;11181;51.002;4.356;2023-07-29T08:45:35;24.50;99.90
22035;DHT22;11181;51.002;4.356;2023-07-29T08:48:03;24.50;99.90
22035;DHT22;11181;51.002;4.356;2023-07-29T08:50:35;24.70;99.90
22035;DHT22;11181;51.002;4.356;2023-07-29T08:53:04;24.90;99.90
22035;DHT22;11181;51.002;4.356;2023-07-29T08:55:32;25.00;99.90
22035;DHT22;11181;51.002;4.356;2023-07-29T08:57:59;25.10;99.90
22035;DHT22;11181;51.002;4.356;2023-07-29T09:00:27;25.00;99.90
22035;DHT22;11181;51.002;4.356;2023-07-29T09:02:54;25.10;99.90
22035;DHT22;11181;51.002;4.356;2023-07-29T09:05:23;25.10;99.90
22035;DHT22;11181;51.002;4.356;2023-07-29T09:07:52;25.00;99.90
22035;DHT22;11181;51.002;4.356;2023-07-29T09:10:21;25.00;99.90
22035;DHT22;11181;51.002;4.356;2023-07-29T09:12:49;25.10;99.90
22035;DHT22;11181;51.002;4.356;2023-07-29T09:15:27;25.10;99.90
22035;DHT22;11181;51.002;4.356;2023-07-29T09:17:55;25.30;99.90
22035;DHT22;11181;51.002;4.356;2023-07-29T09:20:25;25.40;99.90
22035;DHT22;11181;51.002;4.356;2023-07-29T09:22:57;25.10;99.90
22035;DHT22;11181;51.002;4.356;2023-07-29T09:25:24;25.00;99.90
22035;DHT22;11181;51.002;4.356;2023-07-29T09:27:52;24.80;99.90
22035;DHT22;11181;51.002;4.356;2023-07-29T09:30:18;24.60;99.90
22035;DHT22;11181;51.002;4.356;2023-07-29T09:32:45;24.60;99.90
22035;DHT22;11181;51.002;4.356;2023-07-29T09:35:13;24.70;99.90
22035;DHT22;11181;51.002;4.356;2023-07-29T09:37:39;24.70;99.90
22035;DHT22;11181;51.002;4.356;2023-07-29T09:40:14;24.70;99.90
22035;DHT22;11181;51.002;4.356;2023-07-29T09:42:48;24.60;99.90
22035;DHT22;11181;51.002;4.356;2023-07-29T09:45:20;24.60;99.90
22035;DHT22;11181;51.002;4.356;2023-07-29T09:47:47;24.60;99.90
22035;DHT22;11181;51.002;4.356;2023-07-29T09:50:14;24.50;99.90
22035;DHT22;11181;51.002;4.356;2023-07-29T09:52:41;24.10;99.90
22035;DHT22;11181;51.002;4.356;2023-07-29T09:55:11;24.00;99.90
22035;DHT22;11181;51.002;4.356;2023-07-29T09:57:38;24.00;99.90
22035;DHT22;11181;51.002;4.356;2023-07-29T10:00:06;24.20;99.90
22035;DHT22;11181;51.002;4.356;2023-07-29T10:02:37;24.40;99.90
22035;DHT22;11181;51.002;4.356;2023-07-29T10:05:06;24.50;99.90
22035;DHT22;11181;51.002;4.356;2023-07-29T10:07:34;24.60;99.90
22035;DHT22;11181;51.002;4.356;2023-07-29T10:10:03;24.60;99.90
22035;DHT22;11181;51.002;4.356;2023-07-29T10:12:32;24.40;99.90
22035;DHT22;11181;51.002;4.356;2023-07-29T10:15:01;24.40;99.90
22035;DHT22;11181;51.002;4.356;2023-07-29T10:17:29;24.50;99.90
22035;DHT22;11181;51.002;4.356;2023-07-29T10:19:57;24.60;99.90
22035;DHT22;11181;51.002;4.356;2023-07-29T10:22:26;24.70;99.90
22035;DHT22;11181;51.002;4.356;2023-07-29T10:24:59;24.80;99.90
22035;DHT22;11181;51.002;4.356;2023-07-29T10:27:28;24.80;99.90
22035;DHT22;11181;51.002;4.356;2023-07-29T10:29:57;25.00;99.90
22035;DHT22;11181;51.002;4.356;2023-07-29T10:32:25;25.00;99.90
22035;DHT22;11181;51.002;4.356;2023-07-29T10:34:53;25.00;99.90
22035;DHT22;11181;51.002;4.356;2023-07-29T10:37:21;25.00;99.90
22035;DHT22;11181;51.002;4.356;2023-07-29T10:39:53;25.00;99.90
22035;DHT22;11181;51.002;4.356;2023-07-29T10:42:20;25.00;99.90
22035;DHT22;11181;51.002;4.356;2023-07-29T10:44:52;24.90;99.90
22035;DHT22;11181;51.002;4.356;2023-07-29T10:47:22;24.70;99.90
22035;DHT22;11181;51.002;4.356;2023-07-29T10:49:51;24.70;99.90
22035;DHT22;11181;51.002;4.356;2023-07-29T10:55:28;25.00;99.90
22035;DHT22;11181;51.002;4.356;2023-07-29T10:58:15;25.00;99.90
22035;DHT22;11181;51.002;4.356;2023-07-29T11:00:43;25.20;99.90
22035;DHT22;11181;51.002;4.356;2023-07-29T11:03:13;25.30;99.90
22035;DHT22;11181;51.002;4.356;2023-07-29T11:05:49;25.40;99.90
22035;DHT22;11181;51.002;4.356;2023-07-29T11:08:21;25.50;99.90
22035;DHT22;11181;51.002;4.356;2023-07-29T11:11:02;25.20;99.90
22035;DHT22;11181;51.002;4.356;2023-07-29T11:13:31;25.00;99.90
22035;DHT22;11181;51.002;4.356;2023-07-29T11:15:58;24.60;99.90
22035;DHT22;11181;51.002;4.356;2023-07-29T11:18:29;24.30;99.90
22035;DHT22;11181;51.002;4.356;2023-07-29T11:20:57;24.00;99.90
22035;DHT22;11181;51.002;4.356;2023-07-29T11:23:28;23.80;99.90
22035;DHT22;11181;51.002;4.356;2023-07-29T11:25:56;23.80;99.90
22035;DHT22;11181;51.002;4.356;2023-07-29T11:28:24;23.90;99.90
22035;DHT22;11181;51.002;4.356;2023-07-29T11:30:51;23.90;99.90
22035;DHT22;11181;51.002;4.356;2023-07-29T11:33:19;24.00;99.90
22035;DHT22;11181;51.002;4.356;2023-07-29T11:35:49;24.00;99.90
22035;DHT22;11181;51.002;4.356;2023-07-29T11:38:16;24.00;99.90
22035;DHT22;11181;51.002;4.356;2023-07-29T11:40:53;24.00;99.90
22035;DHT22;11181;51.002;4.356;2023-07-29T11:43:20;24.10;99.90
22035;DHT22;11181;51.002;4.356;2023-07-29T11:45:47;24.20;99.90
22035;DHT22;11181;51.002;4.356;2023-07-29T11:48:14;24.50;99.90
22035;DHT22;11181;51.002;4.356;2023-07-29T11:50:41;24.80;99.90
22035;DHT22;11181;51.002;4.356;2023-07-29T11:53:10;24.90;99.90
22035;DHT22;11181;51.002;4.356;2023-07-29T11:55:37;24.80;99.90
22035;DHT22;11181;51.002;4.356;2023-07-29T11:58:04;24.80;99.90
22035;DHT22;11181;51.002;4.356;2023-07-29T12:00:31;24.90;99.90
22035;DHT22;11181;51.002;4.356;2023-07-29T12:02:59;24.70;99.90
22035;DHT22;11181;51.002;4.356;2023-07-29T12:05:26;24.50;99.90
22035;DHT22;11181;51.002;4.356;2023-07-29T12:07:53;24.20;99.90
22035;DHT22;11181;51.002;4.356;2023-07-29T12:10:22;24.00;99.90
22035;DHT22;11181;51.002;4.356;2023-07-29T12:12:50;23.80;99.90
22035;DHT22;11181;51.002;4.356;2023-07-29T12:15:24;23.70;99.90
22035;DHT22;11181;51.002;4.356;2023-07-29T12:17:53;23.90;99.90
22035;DHT22;11181;51.002;4.356;2023-07-29T12:20:22;24.20;99.90
22035;DHT22;11181;51.002;4.356;2023-07-29T12:22:52;24.60;99.90
22035;DHT22;11181;51.002;4.356;2023-07-29T12:25:19;24.90;99.90
22035;DHT22;11181;51.002;4.356;2023-07-29T12:27:48;24.90;99.90
22035;DHT22;11181;51.002;4.356;2023-07-29T12:30:15;24.90;99.90
22035;DHT22;11181;51.002;4.356;2023-07-29T12:32:46;25.10;99.90
22035;DHT22;11181;51.002;4.356;2023-07-29T12:35:13;25.40;99.90
22035;DHT22;11181;51.002;4.356;2023-07-29T12:37:40;25.60;99.90
22035;DHT22;11181;51.002;4.356;2023-07-29T12:42:53;25.80;99.90
22035;DHT22;11181;51.002;4.356;2023-07-29T12:45:20;25.80;99.90
22035;DHT22;11181;51.002;4.356;2023-07-29T12:47:48;25.90;99.90
22035;DHT22;11181;51.002;4.356;2023-07-29T12:50:15;26.00;99.90
22035;DHT22;11181;51.002;4.356;2023-07-29T12:52:42;26.00;99.90
22035;DHT22;11181;51.002;4.356;2023-07-29T12:55:09;25.80;99.90
22035;DHT22;11181;51.002;4.356;2023-07-29T12:57:39;25.70;99.90
22035;DHT22;11181;51.002;4.356;2023-07-29T13:00:09;25.60;99.90
22035;DHT22;11181;51.002;4.356;2023-07-29T13:02:36;25.60;99.90
22035;DHT22;11181;51.002;4.356;2023-07-29T13:05:04;25.70;99.90
22035;DHT22;11181;51.002;4.356;2023-07-29T13:07:31;25.90;99.90
22035;DHT22;11181;51.002;4.356;2023-07-29T13:09:58;25.80;99.90
22035;DHT22;11181;51.002;4.356;2023-07-29T13:12:25;25.80;99.90
22035;DHT22;11181;51.002;4.356;2023-07-29T13:14:52;25.80;99.90
22035;DHT22;11181;51.002;4.356;2023-07-29T13:17:21;25.70;99.90
22035;DHT22;11181;51.002;4.356;2023-07-29T13:19:48;25.80;99.90
22035;DHT22;11181;51.002;4.356;2023-07-29T13:22:15;26.00;99.90
22035;DHT22;11181;51.002;4.356;2023-07-29T13:24:42;26.20;99.90
22035;DHT22;11181;51.002;4.356;2023-07-29T13:27:09;26.20;99.90
22035;DHT22;11181;51.002;4.356;2023-07-29T13:29:36;26.10;99.90
22035;DHT22;11181;51.002;4.356;2023-07-29T13:32:03;26.20;99.90
22035;DHT22;11181;51.002;4.356;2023-07-29T13:34:31;26.20;99.90
22035;DHT22;11181;51.002;4.356;2023-07-29T13:36:59;26.40;99.90
22035;DHT22;11181;51.002;4.356;2023-07-29T13:39:26;26.70;99.90
22035;DHT22;11181;51.002;4.356;2023-07-29T13:41:54;27.00;99.90
22035;DHT22;11181;51.002;4.356;2023-07-29T13:44:21;27.30;99.90
22035;DHT22;11181;51.002;4.356;2023-07-29T13:46:48;27.60;99.90
22035;DHT22;11181;51.002;4.356;2023-07-29T13:49:14;27.80;99.90
22035;DHT22;11181;51.002;4.356;2023-07-29T13:51:43;27.80;99.90
22035;DHT22;11181;51.002;4.356;2023-07-29T13:54:09;27.50;99.90
22035;DHT22;11181;51.002;4.356;2023-07-29T13:56:36;27.40;99.90
22035;DHT22;11181;51.002;4.356;2023-07-29T13:59:03;27.50;99.90
22035;DHT22;11181;51.002;4.356;2023-07-29T14:01:30;27.60;99.90
22035;DHT22;11181;51.002;4.356;2023-07-29T14:03:57;27.50;99.90
22035;DHT22;11181;51.002;4.356;2023-07-29T14:06:24;27.40;99.90
22035;DHT22;11181;51.002;4.356;2023-07-29T14:08:52;27.30;99.90
22035;DHT22;11181;51.002;4.356;2023-07-29T14:11:19;27.20;99.90
22035;DHT22;11181;51.002;4.356;2023-07-29T14:13:46;27.10;99.90
22035;DHT22;11181;51.002;4.356;2023-07-29T14:16:12;27.00;99.90
22035;DHT22;11181;51.002;4.356;2023-07-29T14:18:39;26.90;99.90
22035;DHT22;11181;51.002;4.356;2023-07-29T14:21:06;26.70;99.90
22035;DHT22;11181;51.002;4.356;2023-07-29T14:23:33;26.60;99.90
22035;DHT22;11181;51.002;4.356;2023-07-29T14:26:01;26.50;99.90
22035;DHT22;11181;51.002;4.356;2023-07-29T14:28:28;26.40;99.90
22035;DHT22;11181;51.002;4.356;2023-07-29T14:30:55;26.40;99.90
22035;DHT22;11181;51.002;4.356;2023-07-29T14:33:22;26.70;99.90
22035;DHT22;11181;51.002;4.356;2023-07-29T14:35:49;26.60;99.90
22035;DHT22;11181;51.002;4.356;2023-07-29T14:38:16;26.40;99.90
22035;DHT22;11181;51.002;4.356;2023-07-29T14:40:43;26.00;99.90
22035;DHT22;11181;51.002;4.356;2023-07-29T14:43:11;25.90;99.90
22035;DHT22;11181;51.002;4.356;2023-07-29T14:45:38;25.60;99.90
22035;DHT22;11181;51.002;4.356;2023-07-29T14:48:04;25.10;99.90
22035;DHT22;11181;51.002;4.356;2023-07-29T14:50:31;25.00;99.90
22035;DHT22;11181;51.002;4.356;2023-07-29T14:52:58;25.00;99.90
22035;DHT22;11181;51.002;4.356;2023-07-29T14:55:25;24.90;99.90
22035;DHT22;11181;51.002;4.356;2023-07-29T14:57:52;25.00;99.90
22035;DHT22;11181;51.002;4.356;2023-07-29T15:00:20;25.30;99.90
22035;DHT22;11181;51.002;4.356;2023-07-29T15:02:47;25.40;99.90
22035;DHT22;11181;51.002;4.356;2023-07-29T15:05:14;25.40;99.90
22035;DHT22;11181;51.002;4.356;2023-07-29T15:07:41;25.30;99.90
22035;DHT22;11181;51.002;4.356;2023-07-29T15:10:08;25.20;99.90
22035;DHT22;11181;51.002;4.356;2023-07-29T15:12:35;25.20;99.90
22035;DHT22;11181;51.002;4.356;2023-07-29T15:15:03;24.90;99.90
22035;DHT22;11181;51.002;4.356;2023-07-29T15:17:31;25.00;99.90
22035;DHT22;11181;51.002;4.356;2023-07-29T15:19:58;25.20;99.90
22035;DHT22;11181;51.002;4.356;2023-07-29T15:22:25;25.20;99.90
22035;DHT22;11181;51.002;4.356;2023-07-29T15:24:51;25.30;99.90
22035;DHT22;11181;51.002;4.356;2023-07-29T15:27:18;25.30;99.90
22035;DHT22;11181;51.002;4.356;2023-07-29T15:29:45;25.10;99.90
22035;DHT22;11181;51.002;4.356;2023-07-29T15:32:12;24.90;99.90
22035;DHT22;11181;51.002;4.356;2023-07-29T15:34:40;24.70;99.90
22035;DHT22;11181;51.002;4.356;2023-07-29T15:37:07;24.50;99.90
22035;DHT22;11181;51.002;4.356;2023-07-29T15:39:34;24.40;99.90